TFFRTLPC

Guest
Details From TFFR - Pointe a Pitre Le Raizet
To TLPC - Castries/George F L Charles
Flight Number -
Tags generated
Created
Modified
Stats Distance 139 nm / 257 km
Max Altitude 15,000 ft / 4,572 m
Waypoints 3
Social Downloads 2
Likes 0
Share

Download

Looking for another format? Having issues loading an existing format? Contact us
Advertisement - Login to hide

Notes

Basic altitude profile: - Ascent Rate: 2500ft/min - Ascent Speed: 250kts - Cruise Altitude: 35000ft - Cruise Speed: 420kts - Descent Rate: 1500ft/min - Descent Speed: 250kts Options: - Use NATs: yes - Use PACOTS: yes - Use low airways: yes - Use high airways: yes

Route

TFFR DOM TLPC

ID Type Via Altitude (ft/m) Position (lat/lon) Dist (leg/tot) Name
O TFFR APT - 0 / 0 16.26531 / -61.53181 - / 0 nm Pointe a Pitre Le Raizet
DOM NDB - 15,000 / 4,572 15.55094 / -61.29564 45 / 45 nm MELVILLE HALL NDB
O TLPC APT - 0 / 0 14.01970 / -60.99339 93 / 138 nm Castries/George F L Charles

Altitude Profile

Advertisement - Login to hide

TFFR

Details ICAO TFFR (PTP)
Name Pointe A Pitre Intl
Region France (Guadeloupe, Martinique, Saint Barthélemy, Saint Martin)
Timezone America/Guadeloupe (UTC-4.0)
Stats Elevation 35 ft / 11 m (AMSL)
Location 16.265500° -61.533000°
Runways 1
Magnetic Variation 14.949° W

METAR

TFFR 281330Z AUTO 11012KT 9999 FEW028 SCT056 29/23 Q1016 TEMPO 2500 SCT015CB

Decode

TAF

TAF TFFR 281000Z 2812/2912 09010KT 9999 FEW020 SCT050 PROB40 TEMPO 2812/2912 4500 SHRA BKN018TCU PROB30 TEMPO 2815/2909 2500 SCT015CB

Decode

Departure Runways

ID Width Length Bearing (true/mag) Surface Threshold Overrun Markings Lighting
12 148 ft / 45 m 10,673 ft / 3,253 m 100.87° / 115.81° ASPHALT 1,309 ft / 399 m 98 ft / 30 m PREC-APP CENTERLINE EDGE THRESHOLD TDZ REIL-OMNI
30 148 ft / 45 m 10,673 ft / 3,253 m 280.87° / 295.82° ASPHALT 978 ft / 298 m 853 ft / 260 m APP CENTERLINE EDGE THRESHOLD TDZ REIL-OMNI

TLPC

Details ICAO TLPC (SLU)
Name George F. L. Charles Airport
Region Saint Lucia
Timezone America/St_Lucia (UTC-4.0)
Stats Elevation 21 ft / 6 m (AMSL)
Location 14.020000° -60.992900°
Runways 1
Magnetic Variation 15.194° W

METAR

TLPC 281300Z 12009KT 9999 FEW023 29/24 Q1015 NOSIG

Decode

TAF

TAF TAF TLPC 281100Z 2812/2912 09017KT 9999 SCT025 TEMPO 2818/2912 5000 SHRA FEW015CB BKN018 PROB30 TEMPO 2818/2906 5000 TSRA FEW015CB BKN018

Decode

Destination Runways

ID Width Length Bearing (true/mag) Surface Threshold Overrun Markings Lighting
09 148 ft / 45 m 6,233 ft / 1,900 m 74.85° / 90.04° ASPHALT 423 ft / 129 m 0 ft / 0 m APP EDGE THRESHOLD
27 148 ft / 45 m 6,233 ft / 1,900 m 254.85° / 270.05° ASPHALT 866 ft / 264 m 0 ft / 0 m APP EDGE THRESHOLD

Popular Alternatives